Time;durP1;ratioP1;P1;durP2;ratioP2;P2;SDS_P1;SDS_P2;PMS_P1;PMS_P2;Temp;Humidity;BMP_temperature;BMP_pressure;BME280_temperature;BME280_humidity;BME280_pressure;Samples;Min_cycle;Max_cycle;Signal;HPM_P1;HPM_P2
2021/05/26 00:00:10;;;;;;;0.43;0.43;;;10.00;74.50;;;12.80;61.51;101232.81;5002873;28;96824;-67
2021/05/26 00:02:38;;;;;;;0.30;0.30;;;10.00;74.50;;;12.83;60.92;101228.69;4984015;28;97521;-66
2021/05/26 00:05:11;;;;;;;1.42;0.52;;;10.00;75.10;;;12.81;61.14;101220.16;4986635;28;96892;-66
2021/05/26 00:07:40;;;;;;;2.42;1.05;;;9.90;74.40;;;12.84;61.11;101220.34;4986123;28;97873;-67
2021/05/26 00:10:11;;;;;;;0.20;0.20;;;9.90;74.50;;;12.84;60.69;101220.34;4988266;28;97896;-67
2021/05/26 00:12:39;;;;;;;0.30;0.30;;;9.90;74.50;;;12.85;60.93;101224.63;5002582;28;96856;-67
2021/05/26 00:15:11;;;;;;;0.55;0.55;;;9.90;74.70;;;12.87;60.54;101216.22;4986286;28;96877;-66
2021/05/26 00:17:39;;;;;;;0.13;0.13;;;9.90;74.50;;;12.79;60.82;101219.66;4985157;28;97824;-66
2021/05/26 00:20:10;;;;;;;3.40;1.17;;;9.90;74.50;;;12.72;61.19;101217.38;4984726;28;97729;-66
2021/05/26 00:22:38;;;;;;;0.38;0.38;;;9.90;74.60;;;12.75;61.26;101214.09;5020864;28;97184;-66
2021/05/26 00:25:09;;;;;;;0.30;0.30;;;9.80;74.60;;;12.75;60.67;101207.91;4984058;28;96902;-67
2021/05/26 00:27:38;;;;;;;0.52;0.50;;;9.80;74.60;;;12.73;61.44;101216.28;4999761;28;98102;-66
2021/05/26 00:30:08;;;;;;;0.82;0.57;;;9.80;74.60;;;12.79;60.94;101211.59;5002640;28;99052;-67
2021/05/26 00:32:37;;;;;;;0.38;0.38;;;9.80;74.60;;;12.80;61.12;101203.22;4986814;28;96892;-66
2021/05/26 00:35:09;;;;;;;0.60;0.60;;;9.80;74.60;;;12.84;60.33;101206.91;4988287;28;96966;-66
2021/05/26 00:37:38;;;;;;;0.17;0.17;;;9.80;74.70;;;12.85;60.69;101199.59;4984260;28;97869;-67
2021/05/26 00:40:11;;;;;;;0.85;0.85;;;9.80;74.60;;;12.88;60.72;101196.31;4986756;28;97763;-67
2021/05/26 00:42:39;;;;;;;0.52;0.52;;;9.80;74.70;;;12.85;60.52;101199.59;5014103;28;96889;-67
2021/05/26 00:45:17;;;;;;;1.90;1.75;;;9.80;74.70;;;12.81;60.57;101185.19;4982075;28;97444;-66
2021/05/26 00:47:49;;;;;;;0.82;0.75;;;9.80;74.70;;;12.83;60.74;101193.75;4985631;28;97379;-66
2021/05/26 00:50:22;;;;;;;0.20;0.20;;;9.80;74.70;;;12.86;60.41;101185.06;4981908;28;97734;-66
2021/05/26 00:53:03;;;;;;;0.20;0.20;;;9.80;74.70;;;12.86;60.58;101185.06;4987711;28;97735;-66
2021/05/26 00:55:32;;;;;;;0.38;0.38;;;9.80;74.70;;;12.81;60.76;101187.88;4984384;28;97004;-66
2021/05/26 00:58:03;;;;;;;0.30;0.30;;;9.80;74.70;;;12.86;60.83;101179.69;4986160;28;97107;-66
2021/05/26 01:00:34;;;;;;;0.35;0.35;;;9.80;74.70;;;12.86;60.48;101179.69;4984972;28;97246;-66
2021/05/26 01:03:11;;;;;;;0.47;0.47;;;9.80;74.70;;;12.85;60.65;101178.09;4988382;28;96829;-66
2021/05/26 01:05:43;;;;;;;1.15;1.02;;;9.80;74.80;;;12.84;60.71;101177.31;4987387;28;97122;-67
2021/05/26 01:08:14;;;;;;;0.68;0.63;;;9.80;74.80;;;12.87;60.71;101176.69;4985899;28;97030;-66
2021/05/26 01:10:43;;;;;;;0.40;0.40;;;9.80;74.80;;;12.86;60.69;101168.94;4985016;28;97733;-66
2021/05/26 01:13:14;;;;;;;0.65;0.55;;;9.80;74.80;;;12.88;60.49;101162.16;4971488;28;97361;-66
2021/05/26 01:15:44;;;;;;;1.00;0.95;;;9.80;74.80;;;12.90;60.84;101164.53;4966078;28;97273;-67
2021/05/26 01:18:25;;;;;;;1.33;1.17;;;9.80;74.80;;;12.89;60.59;101168.31;4983398;28;96966;-66
2021/05/26 01:21:00;;;;;;;0.38;0.38;;;9.80;74.80;;;12.87;60.44;101168.63;4979775;28;97996;-66
2021/05/26 01:23:34;;;;;;;0.47;0.47;;;9.80;74.80;;;12.87;60.31;101162.44;5000195;28;96850;-67
2021/05/26 01:26:08;;;;;;;0.75;0.75;;;9.80;74.70;;;12.86;60.89;101161.66;4984409;28;96935;-66
2021/05/26 01:28:39;;;;;;;0.70;0.70;;;9.80;74.70;;;12.84;61.24;101166.56;4967994;28;99335;-67
2021/05/26 01:31:19;;;;;;;0.25;0.25;;;9.80;74.70;;;12.82;60.46;101157.19;4983245;28;98751;-67
2021/05/26 01:34:05;;;;;;;0.32;0.25;;;9.80;74.70;;;12.81;60.62;101161.81;4988580;28;97401;-66
2021/05/26 01:36:42;;;;;;;0.40;0.40;;;9.80;74.70;;;12.81;60.48;101161.00;4984161;28;97363;-66
2021/05/26 01:39:12;;;;;;;2.38;1.25;;;9.80;74.70;;;12.79;60.79;101155.13;4985091;28;98067;-67
2021/05/26 01:41:44;;;;;;;1.00;0.88;;;9.80;74.80;;;12.82;61.08;101154.50;4992601;28;97741;-66
2021/05/26 01:44:13;;;;;;;1.35;1.25;;;9.80;74.80;;;12.79;60.81;101149.75;4984908;28;96838;-66
2021/05/26 01:46:47;;;;;;;6.65;1.80;;;9.80;74.80;;;12.75;60.66;101152.25;4969938;28;97097;-66
2021/05/26 01:49:15;;;;;;;1.65;1.55;;;9.70;74.70;;;12.74;60.60;101155.25;4970006;28;97879;-66
2021/05/26 01:51:45;;;;;;;1.35;1.13;;;9.70;74.80;;;12.67;60.81;101149.50;4985317;28;98060;-66
2021/05/26 01:54:14;;;;;;;2.20;1.63;;;9.70;74.80;;;12.59;61.24;101156.41;4985720;28;96979;-67
2021/05/26 01:56:42;;;;;;;2.15;0.80;;;9.70;74.80;;;12.53;60.72;101146.88;4985571;28;96991;-66
2021/05/26 01:59:12;;;;;;;1.63;1.52;;;9.60;74.80;;;12.46;60.96;101145.69;4986136;28;98043;-67
2021/05/26 02:01:45;;;;;;;5.35;3.83;;;9.60;74.80;;;12.43;60.86;101149.00;4983849;28;97956;-67
2021/05/26 02:04:16;;;;;;;3.35;1.30;;;9.50;74.80;;;12.37;60.90;101134.09;4998960;28;97000;-66
2021/05/26 02:07:02;;;;;;;18.60;2.78;;;9.50;74.80;;;12.31;61.60;101143.38;4984990;28;96986;-66
2021/05/26 02:09:33;;;;;;;0.73;0.73;;;9.50;74.90;;;12.26;61.06;101140.00;4981301;28;96919;-66
2021/05/26 02:12:21;;;;;;;0.82;0.80;;;9.40;74.90;;;12.24;60.88;101129.53;4984374;28;96896;-66
2021/05/26 02:14:56;;;;;;;5.38;2.08;;;9.30;74.90;;;12.14;61.63;101128.94;5015478;28;96791;-66
2021/05/26 02:17:25;;;;;;;2.80;1.13;;;9.30;74.90;;;12.13;61.44;101130.06;4985096;28;100990;-66
2021/05/26 02:19:56;;;;;;;2.28;1.65;;;9.30;74.90;;;12.08;61.07;101130.97;4983406;28;96699;-66
2021/05/26 02:22:26;;;;;;;1.02;0.45;;;9.20;75.00;;;12.03;61.75;101125.72;4984502;28;99009;-66
2021/05/26 02:24:56;;;;;;;2.33;1.35;;;9.20;75.00;;;11.95;61.66;101125.63;4976034;28;97166;-66
2021/05/26 02:27:25;;;;;;;2.25;1.27;;;9.10;75.00;;;11.88;62.03;101114.50;4983119;28;97110;-66
2021/05/26 02:29:53;;;;;;;1.67;1.25;;;9.10;75.00;;;11.88;62.12;101114.50;4987240;28;96846;-66
2021/05/26 02:32:25;;;;;;;0.25;0.25;;;9.10;75.10;;;11.80;62.30;101118.69;4987137;28;98242;-66
2021/05/26 02:34:54;;;;;;;1.48;1.23;;;9.00;75.10;;;11.84;61.49;101114.31;4970988;28;97126;-66
2021/05/26 02:37:22;;;;;;;0.75;0.75;;;9.00;75.10;;;11.92;61.17;101110.13;4984601;28;97016;-66
2021/05/26 02:39:53;;;;;;;0.40;0.40;;;9.00;75.20;;;11.98;61.37;101109.69;5001214;28;96999;-67
2021/05/26 02:42:22;;;;;;;1.00;1.00;;;9.00;75.20;;;11.97;61.32;101110.78;4990293;28;97901;-66
2021/05/26 02:44:50;;;;;;;0.60;0.43;;;8.90;75.10;;;11.96;61.48;101116.47;4972815;28;97255;-67
2021/05/26 02:47:18;;;;;;;1.42;1.00;;;8.90;75.10;;;11.89;61.58;101113.41;4989684;28;97047;-67
2021/05/26 02:49:47;;;;;;;0.50;0.50;;;8.90;75.10;;;11.84;61.23;101110.81;4971828;28;97843;-67
2021/05/26 02:52:17;;;;;;;0.88;0.88;;;8.90;75.10;;;11.81;61.63;101114.91;4986776;28;97736;-66
2021/05/26 02:54:46;;;;;;;4.80;1.85;;;8.80;75.00;;;11.77;61.14;101116.59;4986011;28;96896;-66
2021/05/26 02:57:14;;;;;;;0.57;0.57;;;8.80;75.10;;;11.76;61.62;101115.00;4988726;28;97070;-66
2021/05/26 03:00:23;;;;;;;4.03;2.38;;;8.80;75.20;;;11.73;60.91;101114.81;4984039;28;96913;-66
2021/05/26 03:03:23;;;;;;;0.77;0.77;;;8.80;75.30;;;11.69;61.28;101111.91;4979384;28;96875;-67
2021/05/26 03:05:52;;;;;;;0.77;0.77;;;8.70;75.20;;;11.71;60.86;101104.38;5021076;28;97386;-66
2021/05/26 03:08:20;;;;;;;0.52;0.52;;;8.70;75.20;;;11.75;61.18;101105.38;4986281;28;96811;-66
2021/05/26 03:10:50;;;;;;;7.10;0.35;;;8.70;75.20;;;11.64;61.32;101106.66;4986893;28;98364;-66
2021/05/26 03:13:33;;;;;;;;;;;8.60;75.10;;;11.58;60.98;101110.53;4973050;28;99071;-66
2021/05/26 03:16:24;;;;;;;0.57;0.50;;;8.60;75.20;;;11.58;61.33;101109.75;4987314;28;96994;-66
2021/05/26 03:18:53;;;;;;;4.28;0.47;;;8.60;75.20;;;11.60;61.17;101108.34;4985997;28;96773;-66
2021/05/26 03:21:21;;;;;;;0.30;0.30;;;8.60;75.20;;;11.56;61.46;101104.69;4986153;28;97901;-67
2021/05/26 03:24:11;;;;;;;0.43;0.43;;;8.50;75.20;;;11.57;60.76;101108.94;4987423;28;98064;-66
2021/05/26 03:26:42;;;;;;;0.55;0.55;;;8.50;75.20;;;11.52;60.86;101109.03;4985515;28;96802;-66
2021/05/26 03:29:12;;;;;;;0.52;0.52;;;8.50;75.20;;;11.51;61.22;101102.06;4986561;28;97002;-66
2021/05/26 03:31:41;;;;;;;0.32;0.32;;;8.50;75.20;;;11.46;61.00;101107.53;4971852;28;97462;-66
2021/05/26 03:34:09;;;;;;;2.00;0.80;;;8.50;75.20;;;11.39;61.86;101107.13;4986530;28;98661;-66
2021/05/26 03:36:40;;;;;;;0.70;0.70;;;8.50;75.20;;;11.35;61.45;101105.34;5017809;28;97643;-66
2021/05/26 03:39:10;;;;;;;0.43;0.43;;;8.40;75.20;;;11.41;61.34;101109.50;4989647;28;96930;-67
2021/05/26 03:41:40;;;;;;;0.30;0.30;;;8.40;75.30;;;11.45;61.21;101105.13;4985160;28;97861;-66
2021/05/26 03:44:10;;;;;;;1.77;0.90;;;8.40;75.20;;;11.48;60.95;101110.72;4986619;28;97091;-66
2021/05/26 03:46:41;;;;;;;0.10;0.10;;;8.40;75.30;;;11.50;61.31;101107.72;4986911;28;97226;-66
2021/05/26 03:49:10;;;;;;;0.35;0.35;;;8.40;75.40;;;11.55;60.91;101111.13;4984216;28;96919;-67
2021/05/26 03:51:39;;;;;;;0.20;0.20;;;8.40;75.30;;;11.59;60.53;101109.44;4983717;28;98247;-66
2021/05/26 03:54:09;;;;;;;0.20;0.20;;;8.50;75.40;;;11.62;61.30;101110.75;4988903;28;96928;-66
2021/05/26 03:56:43;;;;;;;0.00;0.00;;;8.50;76.00;;;11.63;60.86;101115.81;4987347;28;97544;-66
2021/05/26 03:59:15;;;;;;;0.03;0.03;;;8.50;75.30;;;11.69;60.65;101109.22;5002886;28;96821;-67
2021/05/26 04:01:46;;;;;;;0.93;0.90;;;8.50;75.30;;;11.75;60.51;101118.78;4985761;28;98293;-66
2021/05/26 04:04:15;;;;;;;0.25;0.25;;;8.50;75.30;;;11.73;60.50;101107.56;4988129;28;97052;-66
2021/05/26 04:06:43;;;;;;;0.45;0.45;;;8.50;75.20;;;11.62;61.35;101110.75;4986604;28;97977;-66
2021/05/26 04:09:17;;;;;;;0.50;0.50;;;8.50;75.20;;;11.65;60.76;101110.94;4985722;28;97036;-66
2021/05/26 04:11:45;;;;;;;0.05;0.05;;;8.60;75.20;;;11.79;60.59;101109.03;4987592;28;99682;-67
2021/05/26 04:14:21;;;;;;;2.72;0.98;;;8.60;75.30;;;11.86;60.66;101112.09;4985594;28;98432;-66
2021/05/26 04:17:25;;;;;;;0.50;0.50;;;8.70;75.30;;;11.90;60.65;101106.94;4949334;28;96877;-66
2021/05/26 04:20:05;;;;;;;0.17;0.17;;;8.70;75.30;;;12.03;60.29;101101.56;4978606;28;97767;-66
2021/05/26 04:22:36;;;;;;;0.20;0.20;;;8.80;75.20;;;12.14;59.81;101094.84;4966055;28;98044;-66
2021/05/26 04:25:09;;;;;;;0.30;0.30;;;8.80;75.20;;;12.27;59.73;101088.63;4969169;28;98142;-66
2021/05/26 04:27:38;;;;;;;0.15;0.15;;;8.90;75.20;;;12.27;59.92;101091.31;4985485;28;96817;-66
2021/05/26 04:30:08;;;;;;;0.30;0.30;;;8.90;75.10;;;12.32;59.51;101088.53;4988166;28;96840;-66
2021/05/26 04:32:43;;;;;;;0.10;0.10;;;8.90;75.10;;;12.37;60.12;101087.59;4985803;28;97968;-66
2021/05/26 04:35:16;;;;;;;2.08;0.50;;;9.00;75.10;;;12.37;59.88;101096.47;4984832;28;97941;-66
2021/05/26 04:37:45;;;;;;;0.30;0.30;;;9.00;75.70;;;12.48;59.98;101095.94;4987024;28;100846;-67
2021/05/26 04:40:14;;;;;;;0.20;0.20;;;9.10;75.20;;;12.53;60.02;101090.44;4984322;28;97143;-67
2021/05/26 04:42:42;;;;;;;0.20;0.20;;;9.20;75.20;;;12.68;59.71;101090.03;4986548;28;96846;-66
2021/05/26 04:45:14;;;;;;;0.03;0.03;;;9.30;75.30;;;12.77;59.82;101082.03;4988116;28;97725;-67
2021/05/26 04:47:43;;;;;;;0.15;0.15;;;9.40;75.20;;;12.81;59.78;101086.50;4987332;28;96780;-67
2021/05/26 04:50:12;;;;;;;0.20;0.20;;;9.40;75.00;;;12.74;60.19;101083.44;4987084;28;97627;-66
2021/05/26 04:52:41;;;;;;;0.03;0.03;;;9.50;75.00;;;12.76;60.00;101067.00;4986267;28;97700;-66
2021/05/26 04:55:11;;;;;;;0.00;0.00;;;9.50;74.90;;;12.69;60.12;101072.81;4985533;28;96983;-66
2021/05/26 04:57:40;;;;;;;0.00;0.00;;;9.50;74.80;;;12.69;60.24;101066.66;4968428;28;96737;-66
2021/05/26 05:00:13;;;;;;;0.10;0.10;;;9.50;74.90;;;12.59;60.81;101064.19;4988068;28;96986;-67
2021/05/26 05:02:43;;;;;;;0.10;0.10;;;9.50;74.80;;;12.59;60.90;101069.56;4987441;28;97805;-67
2021/05/26 05:05:13;;;;;;;0.10;0.10;;;9.50;74.90;;;12.51;60.87;101064.94;4998533;28;98228;-67
2021/05/26 05:07:43;;;;;;;0.00;0.00;;;9.50;75.00;;;12.56;60.30;101065.63;4986119;28;97825;-66
2021/05/26 05:10:13;;;;;;;0.22;0.22;;;9.50;75.00;;;12.52;61.19;101066.53;4984393;28;96976;-66
2021/05/26 05:12:41;;;;;;;0.30;0.30;;;9.50;75.10;;;12.52;61.13;101067.34;4985263;28;98400;-66
2021/05/26 05:15:11;;;;;;;0.10;0.10;;;9.50;75.10;;;12.58;60.69;101076.06;4984559;28;97962;-66
2021/05/26 05:17:39;;;;;;;0.45;0.45;;;9.50;75.10;;;12.58;60.50;101074.19;4985867;28;97072;-66
2021/05/26 05:20:10;;;;;;;0.88;0.85;;;9.50;75.20;;;12.63;60.62;101073.25;4988575;28;97060;-66
2021/05/26 05:22:38;;;;;;;0.38;0.38;;;9.50;75.20;;;12.65;60.64;101068.38;4988466;28;97506;-67
2021/05/26 05:25:10;;;;;;;0.32;0.32;;;9.60;75.20;;;12.80;60.28;101059.91;4985727;28;97093;-66
2021/05/26 05:27:38;;;;;;;0.00;0.00;;;9.60;75.20;;;12.88;60.48;101059.16;4982683;28;96743;-67
2021/05/26 05:30:09;;;;;;;0.13;0.13;;;9.70;75.20;;;12.94;60.49;101064.13;4983584;28;97519;-67
2021/05/26 05:32:37;;;;;;;0.32;0.32;;;9.70;75.20;;;13.08;60.78;101056.78;4983908;28;98277;-66
2021/05/26 05:35:10;;;;;;;0.10;0.10;;;9.80;75.20;;;13.10;59.91;101051.06;4986946;28;97948;-66
2021/05/26 05:37:38;;;;;;;0.25;0.22;;;9.80;75.10;;;13.13;60.42;101053.13;4984532;28;96870;-67
2021/05/26 05:40:08;;;;;;;0.00;0.00;;;9.90;75.20;;;13.22;60.52;101049.38;4987757;28;97137;-66
2021/05/26 05:42:37;;;;;;;0.75;0.22;;;9.90;75.20;;;13.37;60.40;101054.34;4988622;28;97607;-66
2021/05/26 05:45:08;;;;;;;0.50;0.50;;;10.00;75.30;;;13.46;60.34;101057.06;4986257;28;97633;-66
2021/05/26 05:47:37;;;;;;;0.52;0.52;;;10.10;75.30;;;13.56;60.40;101054.09;4986792;28;97264;-67
2021/05/26 05:50:15;;;;;;;0.03;0.03;;;10.20;75.30;;;13.76;60.03;101043.50;4984703;28;97171;-67
2021/05/26 05:52:45;;;;;;;1.15;0.88;;;10.30;75.50;;;14.01;59.81;101056.22;4967647;28;97886;-67
2021/05/26 05:55:15;;;;;;;30.33;0.98;;;10.40;75.60;;;14.10;60.04;101049.69;4984516;28;97269;-68
2021/05/26 05:57:44;;;;;;;1.23;0.45;;;10.60;75.60;;;14.24;59.56;101047.69;4984196;28;96895;-67
2021/05/26 06:00:14;;;;;;;0.63;0.50;;;10.70;75.50;;;14.34;60.01;101050.03;4999004;28;97029;-67
2021/05/26 06:02:44;;;;;;;1.33;0.82;;;10.80;75.50;;;14.45;60.00;101045.13;4988098;28;97305;-67
2021/05/26 06:05:15;;;;;;;0.43;0.43;;;11.00;75.60;;;14.72;59.67;101047.47;4985382;28;96890;-66
2021/05/26 06:07:43;;;;;;;0.80;0.75;;;11.10;75.80;;;15.16;59.44;101045.09;4989225;28;96823;-67
2021/05/26 06:10:13;;;;;;;7.90;1.17;;;11.40;76.20;;;15.59;59.30;101040.28;5003366;28;97628;-67
2021/05/26 06:12:41;;;;;;;1.00;0.73;;;11.70;76.40;;;15.99;58.98;101046.84;4988407;28;102379;-67
2021/05/26 06:15:11;;;;;;;6.07;2.08;;;12.00;76.30;;;16.03;58.97;101036.97;4985989;28;97769;-67
2021/05/26 06:17:39;;;;;;;0.93;0.85;;;12.20;76.00;;;15.98;60.02;101034.47;4982778;28;96813;-67
2021/05/26 06:20:10;;;;;;;0.80;0.80;;;12.30;75.80;;;15.77;60.03;101039.06;4982970;28;97195;-67
2021/05/26 06:22:39;;;;;;;0.50;0.50;;;12.30;75.50;;;15.60;61.14;101033.75;4989312;28;97878;-67
2021/05/26 06:25:12;;;;;;;5.57;1.77;;;12.30;75.40;;;15.43;61.33;101043.88;4985460;28;98168;-67
2021/05/26 06:27:40;;;;;;;2.28;1.33;;;12.20;75.20;;;15.34;60.86;101041.25;4986732;28;96737;-67
2021/05/26 06:30:11;;;;;;;0.82;0.82;;;12.20;75.30;;;15.74;61.12;101037.00;5005333;28;97091;-66
2021/05/26 06:32:39;;;;;;;6.10;1.80;;;12.20;75.70;;;16.14;60.86;101038.13;4988483;28;97957;-66
2021/05/26 06:35:11;;;;;;;1.90;1.42;;;12.40;76.10;;;16.37;59.82;101032.09;4984480;28;96911;-67
2021/05/26 06:37:41;;;;;;;3.90;1.45;;;12.60;76.10;;;16.55;60.25;101032.72;4989552;28;97076;-65
2021/05/26 06:40:11;;;;;;;1.60;1.38;;;12.80;76.10;;;17.05;59.89;101025.13;4989880;28;96956;-66
2021/05/26 06:42:44;;;;;;;1.40;1.30;;;13.00;76.30;;;17.44;59.59;101028.78;4992340;28;97230;-66
2021/05/26 06:45:14;;;;;;;6.00;2.30;;;13.40;76.50;;;17.80;59.59;101028.75;4979517;28;98425;-65
2021/05/26 06:47:42;;;;;;;2.17;1.92;;;13.70;76.50;;;17.76;60.38;101032.47;5019670;28;97461;-66
2021/05/26 06:50:12;;;;;;;0.75;0.75;;;13.90;76.30;;;17.79;60.59;101040.72;4985608;28;97215;-65
2021/05/26 06:52:41;;;;;;;3.85;1.70;;;14.10;76.20;;;17.54;61.17;101033.75;4988552;28;96699;-65
2021/05/26 06:55:11;;;;;;;2.35;1.08;;;14.10;75.50;;;17.17;60.89;101025.16;4989629;28;97100;-66
2021/05/26 06:57:40;;;;;;;1.23;1.13;;;14.00;75.00;;;16.87;61.90;101031.88;4989182;28;96700;-66
2021/05/26 07:00:10;;;;;;;0.70;0.68;;;13.80;74.90;;;16.56;61.86;101032.38;5003708;28;97369;-66
2021/05/26 07:02:39;;;;;;;8.77;1.48;;;13.70;75.00;;;16.45;62.05;101030.41;4986717;28;97351;-65
2021/05/26 07:05:10;;;;;;;0.70;0.70;;;13.50;75.00;;;16.25;62.19;101031.22;5004373;28;97696;-65
2021/05/26 07:07:39;;;;;;;2.83;1.30;;;13.40;75.00;;;16.18;62.66;101042.56;4989472;28;97313;-65
2021/05/26 07:10:10;;;;;;;0.73;0.73;;;13.30;75.20;;;16.18;61.69;101030.94;4985338;28;97446;-65
2021/05/26 07:12:42;;;;;;;1.27;0.82;;;13.20;75.40;;;16.27;61.75;101028.97;4983880;28;98041;-65
2021/05/26 07:15:13;;;;;;;3.53;2.00;;;13.10;75.40;;;16.23;61.64;101045.06;4986961;28;97219;-66
2021/05/26 07:17:42;;;;;;;1.17;1.08;;;13.10;75.30;;;16.13;61.85;101042.75;4990087;28;97049;-65
2021/05/26 07:20:12;;;;;;;1.48;1.38;;;13.00;75.10;;;16.08;61.74;101034.06;5001346;28;96765;-66
2021/05/26 07:22:41;;;;;;;3.10;1.77;;;12.90;75.20;;;15.95;62.15;101041.31;4984361;28;98041;-66
2021/05/26 07:25:13;;;;;;;0.47;0.47;;;12.90;75.80;;;15.92;61.57;101035.78;4985070;28;97910;-66
2021/05/26 07:27:41;;;;;;;1.85;1.73;;;12.80;75.20;;;15.89;61.28;101045.34;4988293;28;96919;-65
2021/05/26 07:30:10;;;;;;;21.02;1.08;;;12.80;75.20;;;15.88;61.98;101042.94;4987905;28;96791;-65
2021/05/26 07:32:39;;;;;;;8.63;2.30;;;12.70;75.30;;;15.92;60.71;101041.97;4985002;28;96738;-66
2021/05/26 07:35:12;;;;;;;4.60;0.88;;;12.70;75.40;;;15.98;60.68;101051.47;4989102;28;97729;-65
2021/05/26 07:37:40;;;;;;;2.17;1.13;;;12.70;75.30;;;15.90;61.58;101043.41;4987801;28;96826;-65
2021/05/26 07:40:12;;;;;;;0.70;0.70;;;12.70;75.20;;;15.95;61.41;101035.13;4984796;28;96953;-65
2021/05/26 07:42:42;;;;;;;0.85;0.85;;;12.70;75.20;;;15.92;60.61;101052.00;5006002;28;97156;-66
2021/05/26 07:45:13;;;;;;;3.42;2.67;;;12.70;75.10;;;15.91;61.46;101044.97;4990880;28;96768;-66
2021/05/26 07:47:41;;;;;;;0.50;0.50;;;12.70;75.20;;;15.94;61.40;101030.84;4989222;28;96733;-65
2021/05/26 07:50:12;;;;;;;0.80;0.77;;;12.60;75.10;;;15.94;61.36;101047.06;4987378;28;97895;-65
2021/05/26 07:52:40;;;;;;;0.75;0.75;;;12.70;75.10;;;15.98;61.25;101051.47;4987182;28;97300;-65
2021/05/26 07:55:14;;;;;;;0.88;0.88;;;12.60;75.10;;;16.01;60.38;101039.22;4984149;28;96852;-65
2021/05/26 07:57:43;;;;;;;6.45;1.45;;;12.70;75.10;;;16.05;61.05;101040.91;4988221;28;96761;-66
2021/05/26 08:00:13;;;;;;;0.70;0.63;;;12.70;75.10;;;16.16;59.97;101039.41;4985701;28;96870;-65
2021/05/26 08:02:41;;;;;;;1.95;0.95;;;12.80;75.20;;;16.33;60.03;101035.75;4985077;28;98000;-65
2021/05/26 08:05:12;;;;;;;5.03;2.00;;;12.80;75.20;;;16.41;60.27;101026.78;4984627;28;97035;-66
2021/05/26 08:07:40;;;;;;;1.10;1.00;;;12.90;75.10;;;16.56;60.09;101035.06;4983765;28;97947;-65
2021/05/26 08:10:12;;;;;;;0.40;0.40;;;13.00;75.20;;;16.73;59.78;101034.09;5000390;28;96850;-67
2021/05/26 08:12:41;;;;;;;3.65;1.33;;;13.10;75.20;;;16.87;59.61;101029.19;4987352;28;99191;-65
2021/05/26 08:15:13;;;;;;;9.63;1.70;;;13.20;75.10;;;16.88;59.30;101034.25;4987399;28;97747;-65
2021/05/26 08:17:42;;;;;;;1.05;0.70;;;13.30;74.90;;;17.01;59.73;101032.34;4986337;28;97649;-66
2021/05/26 08:20:13;;;;;;;0.57;0.57;;;13.40;74.90;;;17.12;59.25;101015.31;4987715;28;97105;-65
2021/05/26 08:22:41;;;;;;;7.07;1.10;;;13.40;74.80;;;17.21;59.43;101024.13;4985508;28;98362;-65
2021/05/26 08:25:11;;;;;;;1.38;1.23;;;13.50;74.70;;;17.21;58.97;101012.50;4987637;28;97686;-66
2021/05/26 08:27:40;;;;;;;2.65;2.33;;;13.60;74.70;;;17.22;59.95;101020.28;4985700;28;97666;-66
2021/05/26 08:30:10;;;;;;;2.33;1.50;;;13.60;74.50;;;17.57;59.34;101014.09;4987353;28;97101;-65
2021/05/26 08:32:38;;;;;;;1.35;0.85;;;13.70;74.90;;;18.39;57.91;101007.19;5003030;28;97978;-66
2021/05/26 08:35:09;;;;;;;0.93;0.85;;;14.10;75.40;;;18.76;57.91;101009.38;4987326;28;98093;-65
2021/05/26 08:37:37;;;;;;;2.70;1.25;;;14.40;75.30;;;19.07;58.02;101004.75;5016141;28;97414;-66
2021/05/26 08:40:07;;;;;;;1.85;1.30;;;14.70;75.20;;;19.32;57.56;101002.63;4987977;28;96934;-66
2021/05/26 08:42:36;;;;;;;1.48;1.38;;;15.10;75.60;;;19.87;57.18;100997.66;4989132;28;98342;-66
2021/05/26 08:45:08;;;;;;;1.67;1.50;;;15.40;75.30;;;20.09;58.00;100999.69;4987069;28;97032;-66
2021/05/26 08:47:40;;;;;;;0.45;0.45;;;15.70;74.80;;;20.12;57.51;100998.22;4988003;28;96810;-66
2021/05/26 08:50:13;;;;;;;11.73;0.90;;;15.90;74.70;;;20.25;57.99;100997.66;4983287;28;97535;-66
2021/05/26 08:52:46;;;;;;;0.40;0.40;;;16.20;74.60;;;20.31;58.59;100992.72;4984692;28;97642;-66
2021/05/26 08:55:17;;;;;;;4.95;1.08;;;16.30;74.50;;;20.46;58.28;100989.16;4982179;28;97322;-66
2021/05/26 08:57:46;;;;;;;1.25;0.98;;;16.50;74.30;;;20.61;58.62;100989.03;4985726;28;97935;-66
2021/05/26 09:00:16;;;;;;;2.45;1.77;;;16.60;74.30;;;20.95;57.93;100986.16;4986864;28;96966;-66
2021/05/26 09:02:44;;;;;;;0.52;0.52;;;16.80;74.30;;;21.40;58.10;100988.00;4983941;28;96988;-66
2021/05/26 09:05:24;;;;;;;2.38;1.02;;;17.10;74.60;;;21.88;57.17;100979.75;4986708;28;96820;-66
2021/05/26 09:07:55;;;;;;;0.55;0.55;;;17.50;74.40;;;22.39;56.99;100978.03;4981530;28;97211;-66
2021/05/26 09:10:24;;;;;;;0.40;0.40;;;17.80;74.50;;;22.72;56.36;100975.22;4990482;28;99871;-65
2021/05/26 09:12:56;;;;;;;1.25;1.15;;;18.10;74.20;;;22.33;57.69;100979.50;4985733;28;97055;-66
2021/05/26 09:15:25;;;;;;;0.63;0.63;;;18.30;73.60;;;22.00;58.63;100971.34;4982743;28;97741;-66
2021/05/26 09:17:57;;;;;;;0.88;0.75;;;18.20;73.20;;;21.64;59.51;100965.78;4982372;28;97579;-68
2021/05/26 09:20:29;;;;;;;1.55;0.95;;;18.10;73.40;;;21.62;59.09;100971.63;4986941;28;97159;-66
2021/05/26 09:23:03;;;;;;;0.47;0.47;;;18.00;73.50;;;21.68;59.08;100970.16;4986967;28;97970;-67
2021/05/26 09:25:35;;;;;;;18.10;1.88;;;18.00;73.60;;;21.68;59.21;100977.53;4985031;28;97613;-66
2021/05/26 09:28:25;;;;;;;0.82;0.82;;;18.00;73.60;;;21.91;58.05;100962.63;4987640;28;99983;-66
2021/05/26 09:31:04;;;;;;;0.47;0.47;;;18.00;73.70;;;22.29;57.67;100957.59;4986181;28;96913;-66
2021/05/26 09:33:38;;;;;;;1.23;0.77;;;18.20;73.60;;;22.26;57.75;100954.88;4985253;28;98309;-66
2021/05/26 09:36:14;;;;;;;0.20;0.20;;;18.40;73.40;;;22.00;58.21;100949.50;4989324;28;98209;-66
2021/05/26 09:38:46;;;;;;;0.95;0.73;;;18.30;72.90;;;21.89;58.66;100943.13;4989995;28;96812;-66
2021/05/26 09:41:20;;;;;;;1.93;0.87;;;18.20;72.90;;;21.98;58.38;100946.34;4988406;28;96943;-66
2021/05/26 09:43:51;;;;;;;3.80;1.25;;;18.20;73.10;;;22.00;58.55;100945.97;4984649;28;96836;-66
2021/05/26 09:46:33;;;;;;;2.50;1.45;;;18.20;73.10;;;22.09;58.00;100947.25;4988823;28;97196;-66
2021/05/26 09:49:11;;;;;;;3.40;1.15;;;18.20;73.00;;;21.99;57.78;100953.38;4987227;28;97620;-66
2021/05/26 09:51:43;;;;;;;1.25;1.02;;;18.20;72.80;;;21.92;58.51;100950.59;4986926;28;97049;-66
2021/05/26 09:54:23;;;;;;;0.30;0.30;;;18.20;72.90;;;21.96;58.42;100953.34;4989988;28;98191;-66
2021/05/26 09:56:54;;;;;;;4.28;0.98;;;18.20;73.00;;;22.34;57.54;100938.16;4990905;28;97693;-66
2021/05/26 09:59:23;;;;;;;1.63;1.38;;;18.30;73.20;;;22.76;56.84;100941.31;4989645;28;96921;-66
2021/05/26 10:01:54;;;;;;;2.53;0.80;;;18.50;73.10;;;22.75;56.93;100947.16;4989450;28;97032;-66
2021/05/26 10:04:24;;;;;;;5.03;0.95;;;18.70;72.50;;;22.35;57.73;100939.72;4988598;28;98273;-66
2021/05/26 10:06:56;;;;;;;0.52;0.52;;;18.70;72.10;;;21.83;58.32;100943.84;4986497;28;97682;-66
2021/05/26 10:09:34;;;;;;;1.13;1.05;;;18.60;71.70;;;21.51;59.64;100945.34;4988390;28;96805;-66
2021/05/26 10:12:15;;;;;;;1.00;0.95;;;18.40;72.00;;;21.65;58.80;100938.16;4987096;28;98825;-65
2021/05/26 10:14:46;;;;;;;0.73;0.47;;;18.30;72.50;;;21.88;58.32;100936.09;4987195;28;96959;-66
2021/05/26 10:17:20;;;;;;;0.77;0.70;;;18.20;72.60;;;22.30;57.41;100923.69;4987083;28;98010;-66
2021/05/26 10:19:50;;;;;;;0.63;0.63;;;18.40;72.80;;;22.53;56.97;100931.75;4988968;28;96843;-66
2021/05/26 10:22:20;;;;;;;1.15;0.80;;;18.60;72.20;;;22.20;57.60;100936.47;4988893;28;97580;-65
2021/05/26 10:24:49;;;;;;;0.40;0.40;;;18.60;71.80;;;21.73;58.89;100945.28;4989838;28;98324;-66
2021/05/26 10:27:34;;;;;;;0.57;0.57;;;18.50;71.30;;;21.02;59.27;100964.47;4987733;28;97669;-66
2021/05/26 10:30:10;;;;;;;0.10;0.10;;;18.20;71.20;;;20.12;60.95;100966.34;4984606;28;97840;-65
2021/05/26 10:32:56;;;;;;;0.10;0.10;;;17.70;71.40;;;19.31;61.87;100971.16;4974363;28;96809;-65